createdAt,value
2022-09-10T00:01:23.500Z,15.49
2022-09-10T00:03:50.707Z,15.53
2022-09-10T00:06:18.757Z,15.48
2022-09-10T00:08:46.590Z,15.45
2022-09-10T00:11:15.053Z,15.52
2022-09-10T00:13:42.464Z,15.53
2022-09-10T00:16:14.101Z,15.49
2022-09-10T00:18:41.842Z,15.50
2022-09-10T00:21:12.539Z,15.49
2022-09-10T00:23:40.454Z,15.42
2022-09-10T00:26:13.400Z,15.41
2022-09-10T00:28:40.016Z,15.38
2022-09-10T00:31:06.752Z,15.40
2022-09-10T00:33:33.189Z,15.40
2022-09-10T00:35:59.571Z,15.40
2022-09-10T00:38:28.286Z,15.42
2022-09-10T00:40:54.665Z,15.48
2022-09-10T00:43:22.209Z,15.51
2022-09-10T00:45:55.537Z,15.46
2022-09-10T00:48:27.561Z,15.50
2022-09-10T00:50:55.175Z,15.52
2022-09-10T00:53:26.893Z,15.63
2022-09-10T00:55:56.794Z,15.68
2022-09-10T00:58:26.474Z,15.44
2022-09-10T01:00:55.966Z,15.50
2022-09-10T01:03:25.397Z,15.66
2022-09-10T01:05:52.258Z,15.53
2022-09-10T01:08:19.100Z,15.55
2022-09-10T01:11:01.563Z,15.36
2022-09-10T01:13:44.181Z,15.49
2022-09-10T01:16:22.719Z,15.63
2022-09-10T01:19:08.050Z,15.63
2022-09-10T01:21:55.068Z,15.46
2022-09-10T01:24:46.314Z,15.51
2022-09-10T01:27:38.880Z,15.44
2022-09-10T01:30:19.630Z,15.49
2022-09-10T01:33:16.320Z,15.43
2022-09-10T01:35:54.843Z,15.42
2022-09-10T01:38:34.669Z,15.46
2022-09-10T01:41:02.138Z,15.39
2022-09-10T01:43:28.846Z,15.44
2022-09-10T01:46:04.898Z,15.46
2022-09-10T01:48:40.428Z,15.46
2022-09-10T01:51:34.881Z,15.38
2022-09-10T01:54:26.312Z,15.37
2022-09-10T01:57:10.126Z,15.29
2022-09-10T01:59:47.162Z,15.31
2022-09-10T02:02:21.626Z,15.32
2022-09-10T02:04:51.506Z,15.43
2022-09-10T02:07:22.587Z,15.29
2022-09-10T02:09:50.671Z,15.45
2022-09-10T02:12:19.821Z,15.28
2022-09-10T02:14:55.264Z,15.36
2022-09-10T02:17:25.275Z,15.39
2022-09-10T02:19:53.839Z,15.37
2022-09-10T02:22:23.829Z,15.34
2022-09-10T02:24:51.358Z,15.29
2022-09-10T02:27:18.190Z,15.16
2022-09-10T02:29:44.600Z,15.15
2022-09-10T02:32:11.023Z,15.18
2022-09-10T02:34:37.458Z,15.10
2022-09-10T02:37:04.283Z,15.24
2022-09-10T02:39:31.160Z,15.20
2022-09-10T02:41:58.674Z,15.13
2022-09-10T02:44:28.226Z,15.11
2022-09-10T02:46:55.462Z,15.17
2022-09-10T02:49:22.106Z,15.12
2022-09-10T02:51:50.502Z,15.18
2022-09-10T02:54:19.886Z,15.12
2022-09-10T02:56:49.949Z,15.15
2022-09-10T02:59:17.949Z,15.23
2022-09-10T03:01:44.374Z,15.22
2022-09-10T03:04:11.164Z,15.17
2022-09-10T03:06:38.137Z,15.34
2022-09-10T03:09:04.844Z,15.36
2022-09-10T03:11:31.671Z,15.32
2022-09-10T03:13:58.072Z,15.35
2022-09-10T03:16:24.594Z,15.45
2022-09-10T03:18:52.276Z,15.38
2022-09-10T03:21:21.648Z,15.33
2022-09-10T03:23:50.676Z,15.36
2022-09-10T03:26:19.099Z,15.37
2022-09-10T03:28:46.638Z,15.44
2022-09-10T03:31:14.171Z,15.46
2022-09-10T03:33:41.131Z,15.52
2022-09-10T03:36:09.645Z,15.32
2022-09-10T03:38:36.149Z,15.32
2022-09-10T03:41:03.090Z,15.33
2022-09-10T03:43:29.935Z,15.36
2022-09-10T03:45:56.707Z,15.40
2022-09-10T03:48:23.508Z,15.47
2022-09-10T03:50:51.288Z,15.54
2022-09-10T03:53:19.087Z,15.46
2022-09-10T03:55:46.721Z,15.52
2022-09-10T03:58:13.689Z,15.44
2022-09-10T04:00:40.090Z,15.64
2022-09-10T04:03:06.637Z,15.58
2022-09-10T04:05:33.341Z,15.52
2022-09-10T04:08:00.107Z,15.53
2022-09-10T04:10:26.899Z,15.53
2022-09-10T04:12:53.792Z,15.43
2022-09-10T04:15:21.793Z,15.43
2022-09-10T04:17:52.053Z,15.27
2022-09-10T04:20:20.527Z,15.22
2022-09-10T04:22:48.133Z,15.15
2022-09-10T04:25:15.888Z,15.08
2022-09-10T04:27:42.849Z,15.15
2022-09-10T04:30:10.796Z,15.16
2022-09-10T04:32:37.221Z,15.15
2022-09-10T04:35:04.244Z,15.07
2022-09-10T04:37:31.178Z,15.15
2022-09-10T04:39:57.789Z,15.16
2022-09-10T04:42:24.748Z,15.18
2022-09-10T04:44:51.140Z,15.25
2022-09-10T04:47:18.289Z,15.17
2022-09-10T04:49:44.854Z,15.10
2022-09-10T04:52:12.011Z,15.07
2022-09-10T04:54:38.946Z,15.11
2022-09-10T04:57:06.382Z,15.05
2022-09-10T04:59:33.402Z,15.13
2022-09-10T05:01:59.886Z,15.02
2022-09-10T05:04:26.306Z,15.07
2022-09-10T05:06:53.382Z,15.03
2022-09-10T05:09:20.529Z,15.06
2022-09-10T05:11:47.330Z,15.03
2022-09-10T05:14:14.218Z,15.12
2022-09-10T05:16:40.831Z,14.91
2022-09-10T05:19:07.596Z,14.97
2022-09-10T05:21:34.008Z,14.99
2022-09-10T05:24:00.446Z,14.85
2022-09-10T05:26:27.815Z,14.83
2022-09-10T05:28:55.485Z,14.93
2022-09-10T05:31:22.164Z,14.97
2022-09-10T05:33:48.612Z,15.04
2022-09-10T05:36:15.060Z,15.01
2022-09-10T05:38:41.751Z,14.83
2022-09-10T05:41:11.498Z,14.90
2022-09-10T05:43:38.093Z,14.96
2022-09-10T05:46:05.068Z,15.18
2022-09-10T05:48:31.510Z,15.18
2022-09-10T05:50:57.915Z,15.01
2022-09-10T05:53:24.592Z,15.02
2022-09-10T05:55:50.994Z,15.16
2022-09-10T05:58:17.439Z,15.10
2022-09-10T06:00:44.003Z,15.17
2022-09-10T06:03:10.522Z,15.32
2022-09-10T06:05:37.170Z,15.38
2022-09-10T06:08:08.392Z,15.27
2022-09-10T06:10:35.645Z,15.41
2022-09-10T06:13:02.067Z,15.46
2022-09-10T06:15:28.495Z,15.49
2022-09-10T06:17:55.817Z,15.79
2022-09-10T06:20:23.395Z,15.98
2022-09-10T06:22:49.788Z,16.12
2022-09-10T06:25:16.301Z,16.14
2022-09-10T06:27:42.784Z,16.20
2022-09-10T06:30:09.988Z,16.46
2022-09-10T06:32:36.549Z,16.25
2022-09-10T06:35:02.973Z,16.46
2022-09-10T06:37:29.425Z,16.59
2022-09-10T06:39:55.877Z,16.71
2022-09-10T06:42:23.856Z,16.92
2022-09-10T06:44:50.679Z,16.97
2022-09-10T06:48:06.479Z,17.02
2022-09-10T06:50:04.745Z,16.91
2022-09-10T06:52:31.120Z,16.85
2022-09-10T06:54:57.547Z,17.17
2022-09-10T06:57:26.727Z,16.97
2022-09-10T06:59:53.111Z,16.71
2022-09-10T07:02:19.522Z,16.83
2022-09-10T07:04:45.959Z,16.98
2022-09-10T07:07:12.361Z,16.91
2022-09-10T07:09:39.283Z,16.96
2022-09-10T07:12:05.849Z,16.62
2022-09-10T07:14:33.279Z,16.89
2022-09-10T07:16:59.715Z,16.78
2022-09-10T07:19:26.104Z,16.37
2022-09-10T07:21:52.525Z,16.67
2022-09-10T07:24:20.124Z,16.62
2022-09-10T07:26:47.111Z,16.52
2022-09-10T07:29:13.664Z,16.48
2022-09-10T07:31:41.569Z,16.52
2022-09-10T07:34:08.649Z,16.52
2022-09-10T07:36:35.091Z,16.89
2022-09-10T07:39:01.838Z,16.71
2022-09-10T07:41:29.913Z,16.90
2022-09-10T07:43:57.778Z,16.58
2022-09-10T07:46:25.551Z,16.91
2022-09-10T07:48:56.996Z,16.60
2022-09-10T07:51:25.071Z,16.88
2022-09-10T07:53:56.576Z,17.18
2022-09-10T07:56:23.502Z,17.22
2022-09-10T07:58:50.730Z,16.57
2022-09-10T08:01:19.602Z,16.59
2022-09-10T08:03:46.509Z,16.77
2022-09-10T08:06:13.296Z,16.75
2022-09-10T08:08:40.483Z,17.18
2022-09-10T08:11:12.295Z,16.85
2022-09-10T08:13:41.324Z,17.00
2022-09-10T08:16:09.563Z,16.86
2022-09-10T08:18:36.178Z,17.01
2022-09-10T08:21:04.758Z,17.04
2022-09-10T08:23:31.521Z,17.42
2022-09-10T08:25:58.314Z,17.22
2022-09-10T08:28:27.236Z,17.27
2022-09-10T08:30:59.169Z,17.22
2022-09-10T08:33:25.707Z,17.29
2022-09-10T08:35:57.147Z,16.75
2022-09-10T08:38:25.585Z,17.16
2022-09-10T08:40:54.477Z,17.24
2022-09-10T08:43:31.425Z,16.93
2022-09-10T08:46:01.727Z,17.39
2022-09-10T08:48:32.084Z,17.87
2022-09-10T08:51:15.962Z,18.55
2022-09-10T08:53:54.149Z,18.71
2022-09-10T08:56:23.104Z,18.38
2022-09-10T08:58:57.529Z,18.55
2022-09-10T09:01:40.847Z,18.94
2022-09-10T09:04:18.940Z,19.14
2022-09-10T09:06:52.660Z,18.59
2022-09-10T09:09:19.131Z,18.32
2022-09-10T09:11:56.873Z,18.61
2022-09-10T09:14:38.088Z,18.48
2022-09-10T09:17:24.738Z,18.99
2022-09-10T09:20:09.625Z,18.96
2022-09-10T09:23:23.280Z,18.10
2022-09-10T09:25:56.480Z,18.04
2022-09-10T09:29:01.161Z,18.10
2022-09-10T09:31:34.122Z,17.94
2022-09-10T09:34:07.010Z,18.05
2022-09-10T09:36:39.960Z,17.95
2022-09-10T09:39:17.855Z,18.11
2022-09-10T09:41:57.330Z,18.36
2022-09-10T09:44:31.583Z,18.38
2022-09-10T09:46:57.994Z,18.41
2022-09-10T09:49:25.482Z,18.52
2022-09-10T09:51:53.237Z,18.95
2022-09-10T09:55:09.946Z,18.64
2022-09-10T09:57:20.468Z,18.44
2022-09-10T09:59:49.432Z,18.83
2022-09-10T10:02:21.574Z,18.50
2022-09-10T10:05:01.239Z,19.15
2022-09-10T10:07:33.686Z,18.84
2022-09-10T10:10:07.484Z,19.09
2022-09-10T10:12:38.051Z,19.66
2022-09-10T10:15:05.042Z,20.32
2022-09-10T10:17:36.119Z,19.15
2022-09-10T10:20:08.892Z,19.71
2022-09-10T10:22:38.176Z,20.59
2022-09-10T10:25:26.494Z,19.79
2022-09-10T10:27:54.459Z,19.87
2022-09-10T10:30:23.540Z,19.22
2022-09-10T10:33:00.053Z,19.30
2022-09-10T10:36:04.199Z,20.58
2022-09-10T10:38:31.811Z,20.77
2022-09-10T10:41:33.283Z,21.08
2022-09-10T10:44:05.739Z,20.74
2022-09-10T10:47:09.551Z,20.76
2022-09-10T10:49:57.434Z,19.97
2022-09-10T10:52:34.471Z,20.50
2022-09-10T10:55:27.862Z,20.59
2022-09-10T10:58:25.274Z,20.34
2022-09-10T11:01:05.122Z,20.33
2022-09-10T11:03:51.352Z,20.84
2022-09-10T11:06:24.641Z,21.47
2022-09-10T11:08:55.274Z,20.51
2022-09-10T11:11:35.386Z,20.96
2022-09-10T11:14:27.604Z,20.53
2022-09-10T11:16:59.411Z,20.17
2022-09-10T11:19:38.973Z,21.20
2022-09-10T11:22:21.472Z,20.55
2022-09-10T11:25:09.682Z,20.59
2022-09-10T11:27:42.786Z,20.66
2022-09-10T11:30:13.347Z,20.38
2022-09-10T11:33:05.866Z,20.32
2022-09-10T11:35:40.145Z,20.06
2022-09-10T11:38:24.801Z,21.10
2022-09-10T11:41:18.956Z,21.47
2022-09-10T11:43:45.412Z,20.96
2022-09-10T11:46:16.622Z,20.86
2022-09-10T11:48:51.188Z,22.04
2022-09-10T11:51:30.602Z,21.57
2022-09-10T11:54:03.725Z,21.03
2022-09-10T11:56:52.865Z,22.05
2022-09-10T11:59:37.739Z,22.91
2022-09-10T12:02:41.497Z,21.78
2022-09-10T12:05:31.800Z,21.42
2022-09-10T12:08:07.421Z,20.39
2022-09-10T12:10:47.220Z,20.16
2022-09-10T12:13:15.183Z,19.98
2022-09-10T12:15:56.037Z,19.19
2022-09-10T12:18:28.331Z,19.27
2022-09-10T12:20:59.451Z,18.72
2022-09-10T12:23:30.535Z,19.48
2022-09-10T12:26:22.186Z,18.18
2022-09-10T12:28:49.418Z,17.71
2022-09-10T12:31:20.122Z,17.56
2022-09-10T12:33:46.603Z,18.25
2022-09-10T12:36:15.393Z,17.97
2022-09-10T12:39:20.075Z,18.16
2022-09-10T12:41:46.473Z,18.36
2022-09-10T12:44:25.234Z,18.00
2022-09-10T12:47:16.576Z,18.38
2022-09-10T12:50:07.164Z,18.05
2022-09-10T12:52:34.467Z,18.30
2022-09-10T12:55:41.789Z,17.86
2022-09-10T12:58:46.592Z,19.39
2022-09-10T13:01:43.209Z,21.23
2022-09-10T13:04:37.443Z,21.51
2022-09-10T13:07:22.842Z,21.32
2022-09-10T13:10:02.514Z,20.79
2022-09-10T13:12:32.755Z,20.90
2022-09-10T13:15:02.590Z,20.70
2022-09-10T13:17:47.054Z,20.83
2022-09-10T13:20:14.967Z,20.48
2022-09-10T13:22:56.020Z,20.47
2022-09-10T13:25:39.683Z,21.04
2022-09-10T13:28:29.929Z,20.20
2022-09-10T13:31:01.771Z,20.57
2022-09-10T13:33:30.959Z,20.76
2022-09-10T13:36:37.458Z,20.57
2022-09-10T13:39:23.696Z,20.18
2022-09-10T13:41:55.533Z,20.40
2022-09-10T13:44:45.457Z,20.88
2022-09-10T13:47:17.998Z,19.30
2022-09-10T13:50:01.010Z,19.41
2022-09-10T13:52:35.217Z,19.69
2022-09-10T13:55:05.205Z,19.85
2022-09-10T13:57:38.713Z,19.23
2022-09-10T14:00:17.174Z,19.35
2022-09-10T14:02:45.816Z,19.12
2022-09-10T14:05:50.214Z,19.00
2022-09-10T14:08:22.108Z,18.55
2022-09-10T14:10:55.909Z,19.01
2022-09-10T14:13:42.013Z,18.39
2022-09-10T14:16:13.563Z,18.84
2022-09-10T14:18:45.000Z,18.33
2022-09-10T14:21:13.172Z,18.15
2022-09-10T14:23:43.894Z,18.17
2022-09-10T14:26:13.170Z,18.21
2022-09-10T14:29:24.761Z,18.40
2022-09-10T14:31:51.423Z,18.19
2022-09-10T14:34:32.782Z,18.32
2022-09-10T14:37:36.790Z,18.33
2022-09-10T14:40:19.299Z,18.43
2022-09-10T14:42:48.031Z,18.23
2022-09-10T14:45:37.593Z,17.93
2022-09-10T14:48:04.094Z,18.06
2022-09-10T14:50:34.673Z,18.04
2022-09-10T14:53:01.117Z,18.25
2022-09-10T14:55:31.172Z,18.13
2022-09-10T14:57:58.804Z,17.62
2022-09-10T15:00:26.037Z,17.62
2022-09-10T15:02:55.921Z,17.49
2022-09-10T15:05:23.032Z,17.24
2022-09-10T15:07:50.274Z,17.27
2022-09-10T15:10:17.056Z,17.16
2022-09-10T15:12:47.077Z,16.95
2022-09-10T15:15:17.713Z,17.02
2022-09-10T15:17:44.679Z,16.89
2022-09-10T15:20:16.760Z,17.26
2022-09-10T15:22:44.113Z,17.19
2022-09-10T15:25:29.794Z,17.40
2022-09-10T15:27:56.350Z,17.10
2022-09-10T15:30:24.281Z,17.19
2022-09-10T15:32:52.862Z,17.55
2022-09-10T15:35:19.235Z,17.45
2022-09-10T15:37:46.286Z,17.45
2022-09-10T15:40:12.894Z,17.41
2022-09-10T15:42:39.334Z,17.79
2022-09-10T15:45:06.150Z,17.60
2022-09-10T15:47:33.582Z,17.74
2022-09-10T15:50:00.012Z,17.87
2022-09-10T15:52:26.408Z,17.88
2022-09-10T15:54:52.796Z,17.70
2022-09-10T15:57:19.289Z,17.46
2022-09-10T15:59:45.766Z,17.32
2022-09-10T16:02:15.066Z,17.37
2022-09-10T16:04:43.171Z,17.28
2022-09-10T16:07:09.731Z,17.43
2022-09-10T16:09:36.515Z,17.26
2022-09-10T16:12:03.412Z,17.17
2022-09-10T16:14:32.050Z,17.21
2022-09-10T16:16:58.810Z,17.04
2022-09-10T16:19:25.360Z,17.06
2022-09-10T16:21:53.018Z,16.87
2022-09-10T16:24:19.487Z,16.92
2022-09-10T16:26:47.964Z,16.69
2022-09-10T16:29:19.674Z,16.89
2022-09-10T16:31:46.331Z,16.73
2022-09-10T16:34:16.286Z,16.75
2022-09-10T16:36:43.626Z,16.63
2022-09-10T16:39:13.000Z,16.80
2022-09-10T16:41:41.801Z,16.69
2022-09-10T16:44:09.108Z,16.72
2022-09-10T16:46:35.648Z,16.51
2022-09-10T16:49:02.277Z,16.72
2022-09-10T16:51:28.947Z,16.58
2022-09-10T16:53:57.942Z,16.53
2022-09-10T16:56:25.741Z,16.71
2022-09-10T16:58:52.682Z,16.64
2022-09-10T17:01:20.693Z,16.72
2022-09-10T17:03:52.187Z,16.65
2022-09-10T17:06:19.769Z,16.49
2022-09-10T17:08:46.663Z,16.41
2022-09-10T17:11:15.430Z,16.47
2022-09-10T17:13:42.465Z,16.51
2022-09-10T17:16:30.883Z,16.39
2022-09-10T17:19:07.075Z,16.29
2022-09-10T17:21:35.448Z,16.48
2022-09-10T17:24:04.350Z,16.45
2022-09-10T17:26:32.619Z,16.46
2022-09-10T17:29:06.660Z,16.41
2022-09-10T17:31:34.848Z,16.37
2022-09-10T17:34:02.176Z,16.31
2022-09-10T17:36:28.609Z,16.35
2022-09-10T17:38:56.489Z,16.31
2022-09-10T17:41:24.096Z,16.23
2022-09-10T17:43:51.022Z,16.23
2022-09-10T17:46:21.363Z,16.21
2022-09-10T17:48:48.746Z,16.23
2022-09-10T17:51:23.922Z,16.33
2022-09-10T17:53:51.851Z,16.26
2022-09-10T17:56:19.416Z,16.15
2022-09-10T17:58:49.845Z,16.19
2022-09-10T18:01:27.584Z,16.23
2022-09-10T18:03:54.550Z,16.21
2022-09-10T18:06:22.104Z,16.15
2022-09-10T18:08:48.825Z,16.11
2022-09-10T18:11:18.347Z,16.16
2022-09-10T18:13:44.971Z,16.35
2022-09-10T18:16:16.800Z,16.31
2022-09-10T18:18:45.518Z,16.13
2022-09-10T18:21:20.295Z,16.23
2022-09-10T18:23:55.328Z,16.17
2022-09-10T18:26:25.039Z,16.21
2022-09-10T18:29:00.164Z,16.15
2022-09-10T18:31:29.695Z,16.22
2022-09-10T18:33:56.771Z,16.13
2022-09-10T18:36:24.546Z,16.09
2022-09-10T18:38:51.527Z,16.12
2022-09-10T18:41:26.226Z,15.99
2022-09-10T18:43:54.471Z,16.03
2022-09-10T18:46:21.025Z,15.95
2022-09-10T18:48:48.076Z,16.00
2022-09-10T18:51:16.878Z,16.06
2022-09-10T18:53:45.504Z,15.92
2022-09-10T18:56:18.088Z,15.92
2022-09-10T18:58:52.604Z,15.93
2022-09-10T19:01:19.537Z,15.96
2022-09-10T19:03:48.144Z,15.90
2022-09-10T19:06:17.855Z,15.99
2022-09-10T19:08:53.300Z,15.87
2022-09-10T19:11:21.703Z,15.97
2022-09-10T19:13:55.872Z,16.00
2022-09-10T19:16:25.366Z,16.10
2022-09-10T19:18:53.901Z,16.03
2022-09-10T19:21:21.717Z,16.07
2022-09-10T19:23:54.229Z,16.07
2022-09-10T19:26:25.032Z,15.97
2022-09-10T19:28:52.620Z,16.08
2022-09-10T19:31:20.688Z,16.09
2022-09-10T19:33:47.746Z,15.96
2022-09-10T19:36:17.565Z,16.04
2022-09-10T19:38:46.793Z,15.99
2022-09-10T19:41:18.762Z,16.03
2022-09-10T19:43:50.509Z,16.04
2022-09-10T19:46:18.759Z,16.04
2022-09-10T19:48:46.745Z,16.02
2022-09-10T19:51:20.020Z,15.90
2022-09-10T19:53:47.605Z,15.97
2022-09-10T19:56:20.586Z,15.98
2022-09-10T19:58:49.765Z,15.88
2022-09-10T20:01:27.712Z,15.99
2022-09-10T20:03:57.170Z,16.02
2022-09-10T20:06:27.893Z,16.02
2022-09-10T20:08:54.614Z,16.11
2022-09-10T20:11:31.298Z,16.07
2022-09-10T20:14:00.677Z,16.13
2022-09-10T20:16:27.650Z,16.03
2022-09-10T20:18:54.426Z,15.97
2022-09-10T20:21:27.339Z,16.08
2022-09-10T20:23:58.132Z,16.00
2022-09-10T20:26:31.654Z,15.98
2022-09-10T20:29:00.789Z,16.02
2022-09-10T20:31:31.269Z,16.03
2022-09-10T20:34:03.884Z,16.03
2022-09-10T20:36:31.464Z,16.05
2022-09-10T20:38:58.423Z,16.02
2022-09-10T20:41:30.556Z,15.98
2022-09-10T20:43:59.213Z,15.82
2022-09-10T20:46:28.395Z,15.72
2022-09-10T20:49:02.688Z,15.80
2022-09-10T20:51:36.444Z,15.78
2022-09-10T20:54:03.857Z,15.83
2022-09-10T20:56:30.542Z,15.79
2022-09-10T20:58:57.499Z,15.82
2022-09-10T21:01:25.798Z,15.87
2022-09-10T21:03:53.845Z,15.80
2022-09-10T21:06:23.783Z,15.84
2022-09-10T21:08:50.767Z,15.65
2022-09-10T21:11:20.342Z,15.68
2022-09-10T21:13:59.011Z,15.75
2022-09-10T21:16:39.435Z,15.65
2022-09-10T21:19:09.269Z,15.79
2022-09-10T21:21:36.639Z,15.80
2022-09-10T21:24:10.554Z,15.80
2022-09-10T21:26:39.363Z,15.68
2022-09-10T21:29:10.765Z,15.67
2022-09-10T21:31:37.700Z,15.61
2022-09-10T21:34:06.032Z,15.66
2022-09-10T21:36:34.941Z,15.59
2022-09-10T21:39:04.152Z,15.57
2022-09-10T21:41:31.942Z,15.47
2022-09-10T21:44:00.270Z,15.50
2022-09-10T21:46:27.515Z,15.44
2022-09-10T21:48:54.094Z,15.44
2022-09-10T21:51:21.142Z,15.46
2022-09-10T21:53:48.368Z,15.51
2022-09-10T21:56:16.733Z,15.55
2022-09-10T21:58:44.814Z,15.56
2022-09-10T22:01:18.790Z,15.47
2022-09-10T22:03:47.281Z,15.54
2022-09-10T22:06:18.828Z,15.51
2022-09-10T22:08:47.664Z,15.50
2022-09-10T22:11:17.028Z,15.50
2022-09-10T22:13:45.096Z,15.42
2022-09-10T22:16:12.697Z,15.27
2022-09-10T22:18:39.951Z,15.17
2022-09-10T22:21:08.657Z,15.13
2022-09-10T22:23:37.330Z,15.01
2022-09-10T22:26:12.513Z,15.03
2022-09-10T22:28:39.636Z,14.98
2022-09-10T22:31:11.310Z,14.90
2022-09-10T22:33:39.381Z,14.89
2022-09-10T22:36:18.667Z,14.99
2022-09-10T22:38:49.623Z,14.92
2022-09-10T22:41:16.379Z,14.85
2022-09-10T22:43:42.890Z,14.81
2022-09-10T22:46:10.783Z,14.87
2022-09-10T22:48:38.812Z,14.76
2022-09-10T22:51:06.656Z,14.64
2022-09-10T22:53:34.177Z,14.70
2022-09-10T22:56:02.206Z,14.70
2022-09-10T22:58:29.140Z,14.72
2022-09-10T23:00:56.263Z,14.68
2022-09-10T23:03:22.877Z,14.74
2022-09-10T23:05:49.453Z,14.78
2022-09-10T23:08:17.035Z,14.71
2022-09-10T23:10:43.447Z,14.79
2022-09-10T23:13:09.871Z,14.79
2022-09-10T23:15:36.924Z,14.78
2022-09-10T23:18:03.319Z,14.80
2022-09-10T23:20:29.699Z,14.85
2022-09-10T23:22:56.087Z,14.86
2022-09-10T23:25:22.507Z,14.77
2022-09-10T23:27:51.147Z,14.69
2022-09-10T23:30:17.921Z,14.59
2022-09-10T23:32:44.357Z,14.64
2022-09-10T23:35:10.775Z,14.56
2022-09-10T23:37:37.223Z,14.60
2022-09-10T23:40:04.239Z,14.59
2022-09-10T23:42:31.212Z,14.59
2022-09-10T23:44:57.638Z,14.57
2022-09-10T23:47:24.055Z,14.56
2022-09-10T23:49:50.448Z,14.54
2022-09-10T23:52:17.368Z,14.52
2022-09-10T23:54:43.778Z,14.58
2022-09-10T23:57:10.864Z,14.56
2022-09-10T23:59:37.280Z,14.64
